sensor_id;sensor_type;location;lat;lon;timestamp;temperature;humidity
16700;DHT22;8466;52.286;21.124;2022-12-18T00:00:42;-4.40;99.90
16700;DHT22;8466;52.286;21.124;2022-12-18T00:03:13;-4.40;99.90
16700;DHT22;8466;52.286;21.124;2022-12-18T00:05:48;-4.40;99.90
16700;DHT22;8466;52.286;21.124;2022-12-18T00:08:18;-4.40;99.90
16700;DHT22;8466;52.286;21.124;2022-12-18T00:10:47;-4.50;99.90
16700;DHT22;8466;52.286;21.124;2022-12-18T00:13:16;-4.40;99.90
16700;DHT22;8466;52.286;21.124;2022-12-18T00:15:45;-4.50;99.90
16700;DHT22;8466;52.286;21.124;2022-12-18T00:18:15;-4.50;99.90
16700;DHT22;8466;52.286;21.124;2022-12-18T00:20:46;-4.50;99.90
16700;DHT22;8466;52.286;21.124;2022-12-18T00:23:15;-4.40;99.90
16700;DHT22;8466;52.286;21.124;2022-12-18T00:25:43;-4.40;99.90
16700;DHT22;8466;52.286;21.124;2022-12-18T00:28:12;-4.40;99.90
16700;DHT22;8466;52.286;21.124;2022-12-18T00:30:41;-4.40;99.90
16700;DHT22;8466;52.286;21.124;2022-12-18T00:33:10;-4.40;99.90
16700;DHT22;8466;52.286;21.124;2022-12-18T00:35:40;-4.40;99.90
16700;DHT22;8466;52.286;21.124;2022-12-18T00:38:09;-4.40;99.90
16700;DHT22;8466;52.286;21.124;2022-12-18T00:40:37;-4.30;99.90
16700;DHT22;8466;52.286;21.124;2022-12-18T00:43:08;-4.30;99.90
16700;DHT22;8466;52.286;21.124;2022-12-18T00:45:36;-4.30;99.90
16700;DHT22;8466;52.286;21.124;2022-12-18T00:48:06;-4.20;99.90
16700;DHT22;8466;52.286;21.124;2022-12-18T00:50:35;-4.30;99.90
16700;DHT22;8466;52.286;21.124;2022-12-18T00:53:06;-4.30;99.90
16700;DHT22;8466;52.286;21.124;2022-12-18T00:55:34;-4.20;99.90
16700;DHT22;8466;52.286;21.124;2022-12-18T00:58:03;-4.20;99.90
16700;DHT22;8466;52.286;21.124;2022-12-18T01:00:32;-4.30;99.90
16700;DHT22;8466;52.286;21.124;2022-12-18T01:03:06;-4.30;99.90
16700;DHT22;8466;52.286;21.124;2022-12-18T01:05:38;-4.30;99.90
16700;DHT22;8466;52.286;21.124;2022-12-18T01:08:09;-4.40;99.90
16700;DHT22;8466;52.286;21.124;2022-12-18T01:10:40;-4.30;99.90
16700;DHT22;8466;52.286;21.124;2022-12-18T01:13:09;-4.30;99.90
16700;DHT22;8466;52.286;21.124;2022-12-18T01:15:38;-4.20;99.90
16700;DHT22;8466;52.286;21.124;2022-12-18T01:18:07;-4.10;99.90
16700;DHT22;8466;52.286;21.124;2022-12-18T01:20:38;-4.10;99.90
16700;DHT22;8466;52.286;21.124;2022-12-18T01:23:17;-4.10;99.90
16700;DHT22;8466;52.286;21.124;2022-12-18T01:25:47;-4.40;99.90
16700;DHT22;8466;52.286;21.124;2022-12-18T01:28:15;-4.10;99.90
16700;DHT22;8466;52.286;21.124;2022-12-18T01:30:44;-4.10;99.90
16700;DHT22;8466;52.286;21.124;2022-12-18T01:33:13;-4.10;99.90
16700;DHT22;8466;52.286;21.124;2022-12-18T01:35:42;-4.10;99.90
16700;DHT22;8466;52.286;21.124;2022-12-18T01:38:12;-4.00;99.90
16700;DHT22;8466;52.286;21.124;2022-12-18T01:40:41;-4.10;99.90
16700;DHT22;8466;52.286;21.124;2022-12-18T01:43:10;-4.10;99.90
16700;DHT22;8466;52.286;21.124;2022-12-18T01:45:39;-4.00;99.90
16700;DHT22;8466;52.286;21.124;2022-12-18T01:48:11;-4.10;99.90
16700;DHT22;8466;52.286;21.124;2022-12-18T01:50:50;-4.10;99.90
16700;DHT22;8466;52.286;21.124;2022-12-18T01:53:24;-4.10;99.90
16700;DHT22;8466;52.286;21.124;2022-12-18T01:55:55;-4.10;99.90
16700;DHT22;8466;52.286;21.124;2022-12-18T01:58:29;-4.10;99.90
16700;DHT22;8466;52.286;21.124;2022-12-18T02:01:01;-4.00;99.90
16700;DHT22;8466;52.286;21.124;2022-12-18T02:03:30;-3.90;99.90
16700;DHT22;8466;52.286;21.124;2022-12-18T02:06:15;-4.00;99.90
16700;DHT22;8466;52.286;21.124;2022-12-18T02:09:04;-3.80;99.90
16700;DHT22;8466;52.286;21.124;2022-12-18T02:11:58;-3.90;99.90
16700;DHT22;8466;52.286;21.124;2022-12-18T02:14:38;-4.00;99.90
16700;DHT22;8466;52.286;21.124;2022-12-18T02:17:13;-3.90;99.90
16700;DHT22;8466;52.286;21.124;2022-12-18T02:19:57;-4.00;99.90
16700;DHT22;8466;52.286;21.124;2022-12-18T02:22:35;-4.00;99.90
16700;DHT22;8466;52.286;21.124;2022-12-18T02:25:21;-4.00;99.90
16700;DHT22;8466;52.286;21.124;2022-12-18T02:27:58;-4.00;99.90
16700;DHT22;8466;52.286;21.124;2022-12-18T02:30:31;-4.00;99.90
16700;DHT22;8466;52.286;21.124;2022-12-18T02:33:01;-4.00;99.90
16700;DHT22;8466;52.286;21.124;2022-12-18T02:35:33;-4.00;99.90
16700;DHT22;8466;52.286;21.124;2022-12-18T02:38:03;-4.10;99.90
16700;DHT22;8466;52.286;21.124;2022-12-18T02:40:33;-4.10;99.90
16700;DHT22;8466;52.286;21.124;2022-12-18T02:43:07;-4.10;99.90
16700;DHT22;8466;52.286;21.124;2022-12-18T02:45:45;-4.10;99.90
16700;DHT22;8466;52.286;21.124;2022-12-18T02:48:15;-4.10;99.90
16700;DHT22;8466;52.286;21.124;2022-12-18T02:50:51;-4.10;99.90
16700;DHT22;8466;52.286;21.124;2022-12-18T02:53:26;-4.10;99.90
16700;DHT22;8466;52.286;21.124;2022-12-18T02:56:01;-4.10;99.90
16700;DHT22;8466;52.286;21.124;2022-12-18T02:58:40;-4.20;99.90
16700;DHT22;8466;52.286;21.124;2022-12-18T03:01:16;-4.20;99.90
16700;DHT22;8466;52.286;21.124;2022-12-18T03:03:52;-4.20;99.90
16700;DHT22;8466;52.286;21.124;2022-12-18T03:06:27;-4.30;99.90
16700;DHT22;8466;52.286;21.124;2022-12-18T03:08:59;-4.30;99.90
16700;DHT22;8466;52.286;21.124;2022-12-18T03:11:33;-4.30;99.90
16700;DHT22;8466;52.286;21.124;2022-12-18T03:14:21;-4.20;99.90
16700;DHT22;8466;52.286;21.124;2022-12-18T03:16:54;-4.10;99.90
16700;DHT22;8466;52.286;21.124;2022-12-18T03:19:27;-4.20;99.90
16700;DHT22;8466;52.286;21.124;2022-12-18T03:21:57;-4.20;99.90
16700;DHT22;8466;52.286;21.124;2022-12-18T03:24:30;-4.30;99.90
16700;DHT22;8466;52.286;21.124;2022-12-18T03:27:02;-4.30;99.90
16700;DHT22;8466;52.286;21.124;2022-12-18T03:29:37;-4.30;99.90
16700;DHT22;8466;52.286;21.124;2022-12-18T03:32:09;-4.40;99.90
16700;DHT22;8466;52.286;21.124;2022-12-18T03:34:40;-4.40;99.90
16700;DHT22;8466;52.286;21.124;2022-12-18T03:37:10;-4.40;99.90
16700;DHT22;8466;52.286;21.124;2022-12-18T03:39:39;-4.50;99.90
16700;DHT22;8466;52.286;21.124;2022-12-18T03:42:12;-4.50;99.90
16700;DHT22;8466;52.286;21.124;2022-12-18T03:44:49;-4.60;99.90
16700;DHT22;8466;52.286;21.124;2022-12-18T03:47:26;-4.60;99.90
16700;DHT22;8466;52.286;21.124;2022-12-18T03:49:59;-4.60;99.90
16700;DHT22;8466;52.286;21.124;2022-12-18T03:52:41;-4.60;99.90
16700;DHT22;8466;52.286;21.124;2022-12-18T03:55:11;-4.70;99.90
16700;DHT22;8466;52.286;21.124;2022-12-18T03:57:42;-4.60;99.90
16700;DHT22;8466;52.286;21.124;2022-12-18T04:00:14;-4.60;99.90
16700;DHT22;8466;52.286;21.124;2022-12-18T04:02:47;-4.60;99.90
16700;DHT22;8466;52.286;21.124;2022-12-18T04:05:18;-4.60;99.90
16700;DHT22;8466;52.286;21.124;2022-12-18T04:07:49;-4.60;99.90
16700;DHT22;8466;52.286;21.124;2022-12-18T04:10:18;-4.60;99.90
16700;DHT22;8466;52.286;21.124;2022-12-18T04:12:47;-4.60;99.90
16700;DHT22;8466;52.286;21.124;2022-12-18T04:15:18;-4.60;99.90
16700;DHT22;8466;52.286;21.124;2022-12-18T04:17:48;-4.60;99.90
16700;DHT22;8466;52.286;21.124;2022-12-18T04:20:18;-4.60;99.90
16700;DHT22;8466;52.286;21.124;2022-12-18T04:22:47;-4.60;99.90
16700;DHT22;8466;52.286;21.124;2022-12-18T04:25:16;-4.60;99.90
16700;DHT22;8466;52.286;21.124;2022-12-18T04:27:44;-4.60;99.90
16700;DHT22;8466;52.286;21.124;2022-12-18T04:30:13;-4.70;99.90
16700;DHT22;8466;52.286;21.124;2022-12-18T04:32:43;-4.70;99.90
16700;DHT22;8466;52.286;21.124;2022-12-18T04:35:21;-4.70;99.90
16700;DHT22;8466;52.286;21.124;2022-12-18T04:37:55;-5.00;99.90
16700;DHT22;8466;52.286;21.124;2022-12-18T04:40:26;-4.60;99.90
16700;DHT22;8466;52.286;21.124;2022-12-18T04:42:54;-4.70;99.90
16700;DHT22;8466;52.286;21.124;2022-12-18T04:45:23;-4.60;99.90
16700;DHT22;8466;52.286;21.124;2022-12-18T04:47:53;-4.60;99.90
16700;DHT22;8466;52.286;21.124;2022-12-18T04:50:22;-4.70;99.90
16700;DHT22;8466;52.286;21.124;2022-12-18T04:52:51;-4.70;99.90
16700;DHT22;8466;52.286;21.124;2022-12-18T04:55:20;-4.80;99.90
16700;DHT22;8466;52.286;21.124;2022-12-18T04:57:49;-4.80;99.90
16700;DHT22;8466;52.286;21.124;2022-12-18T05:00:18;-4.70;99.90
16700;DHT22;8466;52.286;21.124;2022-12-18T05:02:47;-4.80;99.90
16700;DHT22;8466;52.286;21.124;2022-12-18T05:05:17;-4.90;99.90
16700;DHT22;8466;52.286;21.124;2022-12-18T05:07:46;-4.90;99.90
16700;DHT22;8466;52.286;21.124;2022-12-18T05:10:15;-4.90;99.90
16700;DHT22;8466;52.286;21.124;2022-12-18T05:12:45;-5.00;99.90
16700;DHT22;8466;52.286;21.124;2022-12-18T05:15:30;-5.00;99.90
16700;DHT22;8466;52.286;21.124;2022-12-18T05:17:59;-4.90;99.90
16700;DHT22;8466;52.286;21.124;2022-12-18T05:20:30;-5.10;99.90
16700;DHT22;8466;52.286;21.124;2022-12-18T05:22:59;-5.10;99.90
16700;DHT22;8466;52.286;21.124;2022-12-18T05:25:27;-5.10;99.90
16700;DHT22;8466;52.286;21.124;2022-12-18T05:27:56;-5.20;99.90
16700;DHT22;8466;52.286;21.124;2022-12-18T05:30:26;-5.20;99.90
16700;DHT22;8466;52.286;21.124;2022-12-18T05:32:54;-5.20;99.90
16700;DHT22;8466;52.286;21.124;2022-12-18T05:35:23;-5.20;99.90
16700;DHT22;8466;52.286;21.124;2022-12-18T05:37:53;-5.10;99.90
16700;DHT22;8466;52.286;21.124;2022-12-18T05:40:22;-5.10;99.90
16700;DHT22;8466;52.286;21.124;2022-12-18T05:42:51;-5.10;99.90
16700;DHT22;8466;52.286;21.124;2022-12-18T05:45:20;-5.10;99.90
16700;DHT22;8466;52.286;21.124;2022-12-18T05:47:48;-5.10;99.90
16700;DHT22;8466;52.286;21.124;2022-12-18T05:50:17;-5.00;99.90
16700;DHT22;8466;52.286;21.124;2022-12-18T05:52:46;-5.00;99.90
16700;DHT22;8466;52.286;21.124;2022-12-18T05:55:16;-4.90;99.90
16700;DHT22;8466;52.286;21.124;2022-12-18T05:57:45;-5.10;99.90
16700;DHT22;8466;52.286;21.124;2022-12-18T06:00:15;-5.20;99.90
16700;DHT22;8466;52.286;21.124;2022-12-18T06:02:46;-5.40;99.90
16700;DHT22;8466;52.286;21.124;2022-12-18T06:05:16;-5.50;99.90
16700;DHT22;8466;52.286;21.124;2022-12-18T06:07:46;-5.50;99.90
16700;DHT22;8466;52.286;21.124;2022-12-18T06:10:16;-5.50;99.90
16700;DHT22;8466;52.286;21.124;2022-12-18T06:12:45;-5.40;99.90
16700;DHT22;8466;52.286;21.124;2022-12-18T06:15:13;-5.40;99.90
16700;DHT22;8466;52.286;21.124;2022-12-18T06:17:42;-5.40;99.90
16700;DHT22;8466;52.286;21.124;2022-12-18T06:20:12;-5.40;99.90
16700;DHT22;8466;52.286;21.124;2022-12-18T06:22:41;-5.40;99.90
16700;DHT22;8466;52.286;21.124;2022-12-18T06:25:10;-5.40;99.90
16700;DHT22;8466;52.286;21.124;2022-12-18T06:27:40;-5.40;99.90
16700;DHT22;8466;52.286;21.124;2022-12-18T06:30:10;-5.40;99.90
16700;DHT22;8466;52.286;21.124;2022-12-18T06:32:40;-5.40;99.90
16700;DHT22;8466;52.286;21.124;2022-12-18T06:35:10;-5.40;99.90
16700;DHT22;8466;52.286;21.124;2022-12-18T06:37:39;-5.40;99.90
16700;DHT22;8466;52.286;21.124;2022-12-18T06:40:08;-5.40;99.90
16700;DHT22;8466;52.286;21.124;2022-12-18T06:42:37;-5.30;99.90
16700;DHT22;8466;52.286;21.124;2022-12-18T06:45:08;-5.20;99.90
16700;DHT22;8466;52.286;21.124;2022-12-18T06:47:37;-5.20;99.90
16700;DHT22;8466;52.286;21.124;2022-12-18T06:50:07;-5.20;99.90
16700;DHT22;8466;52.286;21.124;2022-12-18T06:52:36;-5.10;99.90
16700;DHT22;8466;52.286;21.124;2022-12-18T06:55:07;-5.20;99.90
16700;DHT22;8466;52.286;21.124;2022-12-18T06:57:37;-5.20;99.90
16700;DHT22;8466;52.286;21.124;2022-12-18T07:00:08;-5.20;99.90
16700;DHT22;8466;52.286;21.124;2022-12-18T07:02:37;-5.30;99.90
16700;DHT22;8466;52.286;21.124;2022-12-18T07:05:07;-5.20;99.90
16700;DHT22;8466;52.286;21.124;2022-12-18T07:07:37;-5.20;99.90
16700;DHT22;8466;52.286;21.124;2022-12-18T07:10:06;-5.20;99.90
16700;DHT22;8466;52.286;21.124;2022-12-18T07:12:35;-5.10;99.90
16700;DHT22;8466;52.286;21.124;2022-12-18T07:15:04;-5.00;99.90
16700;DHT22;8466;52.286;21.124;2022-12-18T07:17:35;-5.00;99.90
16700;DHT22;8466;52.286;21.124;2022-12-18T07:20:04;-5.00;99.90
16700;DHT22;8466;52.286;21.124;2022-12-18T07:22:33;-5.00;99.90
16700;DHT22;8466;52.286;21.124;2022-12-18T07:25:01;-5.00;99.90
16700;DHT22;8466;52.286;21.124;2022-12-18T07:27:30;-4.80;99.90
16700;DHT22;8466;52.286;21.124;2022-12-18T07:29:59;-4.80;99.90
16700;DHT22;8466;52.286;21.124;2022-12-18T07:32:27;-4.70;99.90
16700;DHT22;8466;52.286;21.124;2022-12-18T07:34:58;-4.70;99.90
16700;DHT22;8466;52.286;21.124;2022-12-18T07:37:27;-4.70;99.90
16700;DHT22;8466;52.286;21.124;2022-12-18T07:39:55;-4.70;99.90
16700;DHT22;8466;52.286;21.124;2022-12-18T07:42:24;-4.80;99.90
16700;DHT22;8466;52.286;21.124;2022-12-18T07:45:04;-4.70;99.90
16700;DHT22;8466;52.286;21.124;2022-12-18T07:47:34;-4.60;99.90
16700;DHT22;8466;52.286;21.124;2022-12-18T07:50:06;-4.60;99.90
16700;DHT22;8466;52.286;21.124;2022-12-18T07:52:35;-4.60;99.90
16700;DHT22;8466;52.286;21.124;2022-12-18T07:55:04;-4.60;99.90
16700;DHT22;8466;52.286;21.124;2022-12-18T07:57:33;-4.50;99.90
16700;DHT22;8466;52.286;21.124;2022-12-18T08:00:22;-4.50;99.90
16700;DHT22;8466;52.286;21.124;2022-12-18T08:02:51;-4.50;99.90
16700;DHT22;8466;52.286;21.124;2022-12-18T08:05:22;-4.50;99.90
16700;DHT22;8466;52.286;21.124;2022-12-18T08:07:51;-4.50;99.90
16700;DHT22;8466;52.286;21.124;2022-12-18T08:10:24;-4.40;99.90
16700;DHT22;8466;52.286;21.124;2022-12-18T08:12:55;-4.40;99.90
16700;DHT22;8466;52.286;21.124;2022-12-18T08:15:30;-4.20;99.90
16700;DHT22;8466;52.286;21.124;2022-12-18T08:17:59;-4.20;99.90
16700;DHT22;8466;52.286;21.124;2022-12-18T08:20:29;-4.20;99.90
16700;DHT22;8466;52.286;21.124;2022-12-18T08:22:58;-4.30;99.90
16700;DHT22;8466;52.286;21.124;2022-12-18T08:25:27;-4.30;99.90
16700;DHT22;8466;52.286;21.124;2022-12-18T08:27:55;-4.20;99.90
16700;DHT22;8466;52.286;21.124;2022-12-18T08:30:24;-4.10;99.90
16700;DHT22;8466;52.286;21.124;2022-12-18T08:32:53;-4.00;99.90
16700;DHT22;8466;52.286;21.124;2022-12-18T08:35:22;-4.00;99.90
16700;DHT22;8466;52.286;21.124;2022-12-18T08:37:52;-3.90;99.90
16700;DHT22;8466;52.286;21.124;2022-12-18T08:40:21;-3.90;99.90
16700;DHT22;8466;52.286;21.124;2022-12-18T08:42:50;-3.80;99.90
16700;DHT22;8466;52.286;21.124;2022-12-18T08:45:36;-3.60;99.90
16700;DHT22;8466;52.286;21.124;2022-12-18T08:48:05;-3.40;99.90
16700;DHT22;8466;52.286;21.124;2022-12-18T08:50:34;-3.30;99.90
16700;DHT22;8466;52.286;21.124;2022-12-18T08:53:04;-3.20;99.90
16700;DHT22;8466;52.286;21.124;2022-12-18T08:55:35;-3.20;99.90
16700;DHT22;8466;52.286;21.124;2022-12-18T08:58:04;-3.40;99.90
16700;DHT22;8466;52.286;21.124;2022-12-18T09:00:32;-3.50;99.90
16700;DHT22;8466;52.286;21.124;2022-12-18T09:03:01;-3.60;99.90
16700;DHT22;8466;52.286;21.124;2022-12-18T09:05:30;-3.50;99.90
16700;DHT22;8466;52.286;21.124;2022-12-18T09:07:59;-3.40;99.90
16700;DHT22;8466;52.286;21.124;2022-12-18T09:10:30;-3.40;99.90
16700;DHT22;8466;52.286;21.124;2022-12-18T09:12:59;-3.30;99.90
16700;DHT22;8466;52.286;21.124;2022-12-18T09:15:28;-3.00;99.90
16700;DHT22;8466;52.286;21.124;2022-12-18T09:17:56;-2.90;99.90
16700;DHT22;8466;52.286;21.124;2022-12-18T09:20:25;-2.90;99.90
16700;DHT22;8466;52.286;21.124;2022-12-18T09:22:56;-2.80;99.90
16700;DHT22;8466;52.286;21.124;2022-12-18T09:25:24;-2.80;99.90
16700;DHT22;8466;52.286;21.124;2022-12-18T09:28:00;-2.60;99.90
16700;DHT22;8466;52.286;21.124;2022-12-18T09:30:29;-2.60;99.90
16700;DHT22;8466;52.286;21.124;2022-12-18T09:33:00;-2.40;99.90
16700;DHT22;8466;52.286;21.124;2022-12-18T09:35:29;-2.30;99.90
16700;DHT22;8466;52.286;21.124;2022-12-18T09:37:59;-2.20;99.90
16700;DHT22;8466;52.286;21.124;2022-12-18T09:40:34;-2.20;99.90
16700;DHT22;8466;52.286;21.124;2022-12-18T09:43:05;-2.20;99.90
16700;DHT22;8466;52.286;21.124;2022-12-18T09:45:41;-2.20;99.90
16700;DHT22;8466;52.286;21.124;2022-12-18T09:48:15;-2.20;99.90
16700;DHT22;8466;52.286;21.124;2022-12-18T09:50:46;-2.20;99.90
16700;DHT22;8466;52.286;21.124;2022-12-18T09:53:20;-2.20;99.90
16700;DHT22;8466;52.286;21.124;2022-12-18T09:55:51;-2.20;99.90
16700;DHT22;8466;52.286;21.124;2022-12-18T09:58:27;-2.00;99.90
16700;DHT22;8466;52.286;21.124;2022-12-18T10:00:58;-1.80;99.90
16700;DHT22;8466;52.286;21.124;2022-12-18T10:03:27;-1.70;99.90
16700;DHT22;8466;52.286;21.124;2022-12-18T10:06:04;-1.60;99.90
16700;DHT22;8466;52.286;21.124;2022-12-18T10:08:40;-1.50;99.90
16700;DHT22;8466;52.286;21.124;2022-12-18T10:11:26;-1.50;99.90
16700;DHT22;8466;52.286;21.124;2022-12-18T10:14:01;-1.40;99.90
16700;DHT22;8466;52.286;21.124;2022-12-18T10:16:39;-1.30;99.90
16700;DHT22;8466;52.286;21.124;2022-12-18T10:19:22;-1.30;99.90
16700;DHT22;8466;52.286;21.124;2022-12-18T10:22:02;-1.40;99.90
16700;DHT22;8466;52.286;21.124;2022-12-18T10:24:41;-1.40;99.90
16700;DHT22;8466;52.286;21.124;2022-12-18T10:27:15;-1.40;99.90
16700;DHT22;8466;52.286;21.124;2022-12-18T10:29:45;-1.30;99.90
16700;DHT22;8466;52.286;21.124;2022-12-18T10:32:16;-1.30;99.90
16700;DHT22;8466;52.286;21.124;2022-12-18T10:34:46;-1.10;99.90
16700;DHT22;8466;52.286;21.124;2022-12-18T10:37:18;-1.20;99.90
16700;DHT22;8466;52.286;21.124;2022-12-18T10:40:08;-1.30;99.90
16700;DHT22;8466;52.286;21.124;2022-12-18T10:42:44;-1.40;99.90
16700;DHT22;8466;52.286;21.124;2022-12-18T10:45:16;-1.50;99.90
16700;DHT22;8466;52.286;21.124;2022-12-18T10:47:48;-1.50;99.90
16700;DHT22;8466;52.286;21.124;2022-12-18T10:50:24;-1.60;99.90
16700;DHT22;8466;52.286;21.124;2022-12-18T10:53:19;-1.70;99.90
16700;DHT22;8466;52.286;21.124;2022-12-18T10:55:48;-1.60;99.90
16700;DHT22;8466;52.286;21.124;2022-12-18T10:58:24;-1.50;99.90
16700;DHT22;8466;52.286;21.124;2022-12-18T11:01:09;-1.40;99.90
16700;DHT22;8466;52.286;21.124;2022-12-18T11:03:40;-1.40;99.90
16700;DHT22;8466;52.286;21.124;2022-12-18T11:06:11;-1.20;99.90
16700;DHT22;8466;52.286;21.124;2022-12-18T11:08:42;-1.10;99.90
16700;DHT22;8466;52.286;21.124;2022-12-18T11:11:20;-1.10;99.90
16700;DHT22;8466;52.286;21.124;2022-12-18T11:13:58;-1.00;99.90
16700;DHT22;8466;52.286;21.124;2022-12-18T11:16:34;-0.90;99.90
16700;DHT22;8466;52.286;21.124;2022-12-18T11:19:26;-0.90;99.90
16700;DHT22;8466;52.286;21.124;2022-12-18T11:21:57;-0.80;99.90
16700;DHT22;8466;52.286;21.124;2022-12-18T11:24:29;-0.80;99.90
16700;DHT22;8466;52.286;21.124;2022-12-18T11:27:00;-0.90;99.90
16700;DHT22;8466;52.286;21.124;2022-12-18T11:29:37;-0.90;99.90
16700;DHT22;8466;52.286;21.124;2022-12-18T11:32:29;-0.90;99.90
16700;DHT22;8466;52.286;21.124;2022-12-18T11:35:03;-0.90;99.90
16700;DHT22;8466;52.286;21.124;2022-12-18T11:37:32;-0.80;99.90
16700;DHT22;8466;52.286;21.124;2022-12-18T11:40:06;-0.80;99.90
16700;DHT22;8466;52.286;21.124;2022-12-18T11:42:41;-0.90;99.90
16700;DHT22;8466;52.286;21.124;2022-12-18T11:45:28;-0.90;99.90
16700;DHT22;8466;52.286;21.124;2022-12-18T11:48:08;-1.10;99.90
16700;DHT22;8466;52.286;21.124;2022-12-18T11:50:46;-1.10;99.90
16700;DHT22;8466;52.286;21.124;2022-12-18T11:53:18;-1.20;99.90
16700;DHT22;8466;52.286;21.124;2022-12-18T11:56:00;-1.30;99.90
16700;DHT22;8466;52.286;21.124;2022-12-18T11:58:40;-1.40;99.90
16700;DHT22;8466;52.286;21.124;2022-12-18T12:01:23;-1.40;99.90
16700;DHT22;8466;52.286;21.124;2022-12-18T12:04:30;-1.40;99.90
16700;DHT22;8466;52.286;21.124;2022-12-18T12:07:09;-1.40;99.90
16700;DHT22;8466;52.286;21.124;2022-12-18T12:09:46;-1.30;99.90
16700;DHT22;8466;52.286;21.124;2022-12-18T12:12:29;-1.20;99.90
16700;DHT22;8466;52.286;21.124;2022-12-18T12:15:26;-1.30;99.90
16700;DHT22;8466;52.286;21.124;2022-12-18T12:18:01;-1.30;99.90
16700;DHT22;8466;52.286;21.124;2022-12-18T12:20:47;-1.30;99.90
16700;DHT22;8466;52.286;21.124;2022-12-18T12:23:26;-1.30;99.90
16700;DHT22;8466;52.286;21.124;2022-12-18T12:26:02;-1.30;99.90
16700;DHT22;8466;52.286;21.124;2022-12-18T12:32:01;-1.40;99.90
16700;DHT22;8466;52.286;21.124;2022-12-18T12:34:36;-1.50;99.90
16700;DHT22;8466;52.286;21.124;2022-12-18T12:37:20;-1.40;99.90
16700;DHT22;8466;52.286;21.124;2022-12-18T12:39:55;-1.50;99.90
16700;DHT22;8466;52.286;21.124;2022-12-18T12:42:31;-1.80;99.90
16700;DHT22;8466;52.286;21.124;2022-12-18T12:45:23;-1.60;99.90
16700;DHT22;8466;52.286;21.124;2022-12-18T12:47:55;-1.70;99.90
16700;DHT22;8466;52.286;21.124;2022-12-18T12:50:26;-1.70;99.90
16700;DHT22;8466;52.286;21.124;2022-12-18T12:52:57;-1.80;99.90
16700;DHT22;8466;52.286;21.124;2022-12-18T12:55:29;-1.70;99.90
16700;DHT22;8466;52.286;21.124;2022-12-18T12:58:07;-1.70;99.90
16700;DHT22;8466;52.286;21.124;2022-12-18T13:00:46;-1.80;99.90
16700;DHT22;8466;52.286;21.124;2022-12-18T13:03:27;-1.70;99.90
16700;DHT22;8466;52.286;21.124;2022-12-18T13:06:04;-1.80;99.90
16700;DHT22;8466;52.286;21.124;2022-12-18T13:08:54;-1.90;99.90
16700;DHT22;8466;52.286;21.124;2022-12-18T13:11:35;-2.00;99.90
16700;DHT22;8466;52.286;21.124;2022-12-18T13:14:31;-2.00;99.90
16700;DHT22;8466;52.286;21.124;2022-12-18T13:17:25;-1.90;99.90
16700;DHT22;8466;52.286;21.124;2022-12-18T13:20:11;-2.00;99.90
16700;DHT22;8466;52.286;21.124;2022-12-18T13:23:00;-2.00;99.90
16700;DHT22;8466;52.286;21.124;2022-12-18T13:25:35;-2.00;99.90
16700;DHT22;8466;52.286;21.124;2022-12-18T13:28:08;-2.00;99.90
16700;DHT22;8466;52.286;21.124;2022-12-18T13:30:52;-2.10;99.90
16700;DHT22;8466;52.286;21.124;2022-12-18T13:33:42;-2.00;99.90
16700;DHT22;8466;52.286;21.124;2022-12-18T13:36:32;-2.00;99.90
16700;DHT22;8466;52.286;21.124;2022-12-18T13:39:24;-2.00;99.90
16700;DHT22;8466;52.286;21.124;2022-12-18T13:45:40;-2.00;99.90
16700;DHT22;8466;52.286;21.124;2022-12-18T13:48:20;-2.00;99.90
16700;DHT22;8466;52.286;21.124;2022-12-18T13:50:55;-2.10;99.90
16700;DHT22;8466;52.286;21.124;2022-12-18T13:53:28;-2.10;99.90
16700;DHT22;8466;52.286;21.124;2022-12-18T13:55:58;-2.10;99.90
16700;DHT22;8466;52.286;21.124;2022-12-18T13:58:27;-2.20;99.90
16700;DHT22;8466;52.286;21.124;2022-12-18T14:00:58;-2.10;99.90
16700;DHT22;8466;52.286;21.124;2022-12-18T14:03:29;-2.10;99.90
16700;DHT22;8466;52.286;21.124;2022-12-18T14:06:04;-2.10;99.90
16700;DHT22;8466;52.286;21.124;2022-12-18T14:08:38;-2.10;99.90
16700;DHT22;8466;52.286;21.124;2022-12-18T14:11:19;-2.10;99.90
16700;DHT22;8466;52.286;21.124;2022-12-18T14:13:49;-2.10;99.90
16700;DHT22;8466;52.286;21.124;2022-12-18T14:16:20;-2.10;99.90
16700;DHT22;8466;52.286;21.124;2022-12-18T14:18:52;-2.10;99.90
16700;DHT22;8466;52.286;21.124;2022-12-18T14:21:30;-2.20;99.90
16700;DHT22;8466;52.286;21.124;2022-12-18T14:24:11;-2.10;99.90
16700;DHT22;8466;52.286;21.124;2022-12-18T14:26:43;-2.10;99.90
16700;DHT22;8466;52.286;21.124;2022-12-18T14:29:25;-2.20;99.90
16700;DHT22;8466;52.286;21.124;2022-12-18T14:32:10;-2.20;99.90
16700;DHT22;8466;52.286;21.124;2022-12-18T14:34:47;-2.30;99.90
16700;DHT22;8466;52.286;21.124;2022-12-18T14:37:17;-2.30;99.90
16700;DHT22;8466;52.286;21.124;2022-12-18T14:39:58;-2.40;99.90
16700;DHT22;8466;52.286;21.124;2022-12-18T14:42:37;-2.50;99.90
16700;DHT22;8466;52.286;21.124;2022-12-18T14:45:34;-2.60;99.90
16700;DHT22;8466;52.286;21.124;2022-12-18T14:48:16;-2.60;99.90
16700;DHT22;8466;52.286;21.124;2022-12-18T14:50:57;-2.70;99.90
16700;DHT22;8466;52.286;21.124;2022-12-18T14:53:36;-2.80;99.90
16700;DHT22;8466;52.286;21.124;2022-12-18T14:56:15;-2.80;99.90
16700;DHT22;8466;52.286;21.124;2022-12-18T14:58:46;-2.70;99.90
16700;DHT22;8466;52.286;21.124;2022-12-18T15:01:27;-2.80;99.90
16700;DHT22;8466;52.286;21.124;2022-12-18T15:03:59;-2.80;99.90
16700;DHT22;8466;52.286;21.124;2022-12-18T15:06:32;-2.70;99.90
16700;DHT22;8466;52.286;21.124;2022-12-18T15:09:04;-2.70;99.90
16700;DHT22;8466;52.286;21.124;2022-12-18T15:11:42;-2.70;99.90
16700;DHT22;8466;52.286;21.124;2022-12-18T15:14:39;-2.70;99.90
16700;DHT22;8466;52.286;21.124;2022-12-18T15:17:17;-2.70;99.90
16700;DHT22;8466;52.286;21.124;2022-12-18T15:19:48;-2.70;99.90
16700;DHT22;8466;52.286;21.124;2022-12-18T15:22:25;-2.70;99.90
16700;DHT22;8466;52.286;21.124;2022-12-18T15:24:55;-2.70;99.90
16700;DHT22;8466;52.286;21.124;2022-12-18T15:27:30;-2.70;99.90
16700;DHT22;8466;52.286;21.124;2022-12-18T15:30:21;-2.70;99.90
16700;DHT22;8466;52.286;21.124;2022-12-18T15:32:51;-2.80;99.90
16700;DHT22;8466;52.286;21.124;2022-12-18T15:35:23;-2.70;99.90
16700;DHT22;8466;52.286;21.124;2022-12-18T15:37:53;-2.70;99.90
16700;DHT22;8466;52.286;21.124;2022-12-18T15:40:23;-2.80;99.90
16700;DHT22;8466;52.286;21.124;2022-12-18T15:42:54;-2.80;99.90
16700;DHT22;8466;52.286;21.124;2022-12-18T15:45:40;-2.70;99.90
16700;DHT22;8466;52.286;21.124;2022-12-18T15:48:18;-2.70;99.90
16700;DHT22;8466;52.286;21.124;2022-12-18T15:50:49;-2.70;99.90
16700;DHT22;8466;52.286;21.124;2022-12-18T15:53:19;-2.70;99.90
16700;DHT22;8466;52.286;21.124;2022-12-18T15:55:48;-2.70;99.90
16700;DHT22;8466;52.286;21.124;2022-12-18T15:58:34;-2.70;99.90
16700;DHT22;8466;52.286;21.124;2022-12-18T16:01:03;-2.70;99.90
16700;DHT22;8466;52.286;21.124;2022-12-18T16:03:32;-2.70;99.90
16700;DHT22;8466;52.286;21.124;2022-12-18T16:06:02;-2.70;99.90
16700;DHT22;8466;52.286;21.124;2022-12-18T16:08:31;-2.70;99.90
16700;DHT22;8466;52.286;21.124;2022-12-18T16:11:00;-2.70;99.90
16700;DHT22;8466;52.286;21.124;2022-12-18T16:13:29;-2.70;99.90
16700;DHT22;8466;52.286;21.124;2022-12-18T16:15:58;-2.70;99.90